Terminal Aerodrome Forecast
Issued by NWS

Home | Current Version | Previous Version | Text Only | Print | Product List | Glossary On
Versions: 1 2 3 4 5 6 7 8 9 10 11 12 13 14 15 16 17 18 19 20 21 22 23 24 25 26 27 28 29 30
000
FTUS41 KBOX 281139
TAFACK
TAF
KACK 281139Z 2812/2912 32014G22KT P6SM BKN015 OVC040
     FM281400 32016KT P6SM OVC035
     FM281600 32016KT P6SM SCT025 OVC090
     FM281800 33014KT P6SM BKN025
     FM290500 35012KT P6SM SCT025
     FM290800 36011KT P6SM SCT250=

USA.gov is the U.S. government's official web portal to all federal, state and local government web resources and services.